This is the latest recevied weather packets stored in our database for station/object N1TKS. If no packets are shown the sender has not sent any weather packets the latest 1 day(s).
| Time | Temp. | Humidity | Pressure | Rain* | Wind** | Luminosity | Snow |
|---|---|---|---|---|---|---|---|
| 1778028415 | 18.89° C | 68% | 1009.9 hPa | 0 mm | 0 m/s | - | - |
| 1778028114 | 18.89° C | 68% | 1009.8 hPa | 0 mm | 0 m/s | - | - |
| 1778027813 | 18.89° C | 68% | 1009.7 hPa | 0 mm | 0 m/s | - | - |
| 1778027553 | 18.89° C | 68% | 1009.6 hPa | 0 mm | 0.89 m/s, 180° | - | - |
| 1778027535 | 18.89° C | 69% | 1009.7 hPa | 0 mm | 0.89 m/s, 178° | - | - |
| 1778027514 | 18.89° C | 68% | 1009.6 hPa | 0 mm | 0.89 m/s, 180° | - | - |
| 1778027214 | 18.89° C | 68% | 1009.6 hPa | 0 mm | 0.45 m/s, 172° | - | - |
| 1778026913 | 18.89° C | 69% | 1009.7 hPa | 0 mm | 0.89 m/s, 178° | - | - |
| 1778026695 | 18.89° C | 67% | 1009.5 hPa | 0 mm | 0.45 m/s, 193° | - | - |
| 1778026614 | 18.89° C | 69% | 1009.7 hPa | 0 mm | 0 m/s | - | - |
| 1778026313 | 18.89° C | 69% | 1009.6 hPa | 0 mm | 0 m/s | - | - |
| 1778026014 | 18.89° C | 68% | 1009.7 hPa | 0 mm | 0 m/s | - | - |
| 1778025413 | 18.89° C | 67% | 1009.5 hPa | 0 mm | 0.45 m/s, 193° | - | - |
| 1778025114 | 18.89° C | 67% | 1009.4 hPa | 0 mm | 0.45 m/s, 193° | - | - |
| 1778024818 | 19.44° C | 67% | 1009.3 hPa | 0 mm | 0.89 m/s, 191° | - | - |
| 1778024761 | 20° C | 64% | 1008.9 hPa | 0 mm | 0.45 m/s, 190° | - | - |
| 1778024519 | 19.44° C | 66% | 1009.2 hPa | 0 mm | 0.45 m/s, 191° | - | - |
| 1778024259 | 19.44° C | 66% | 1009.2 hPa | 0 mm | 0.45 m/s, 191° | - | - |
| 1778024213 | 19.44° C | 66% | 1009.2 hPa | 0 mm | 0.45 m/s, 191° | - | - |
| 1778023921 | 19.44° C | 66% | 1009.1 hPa | 0 mm | 0.89 m/s, 191° | - | - |
| 1778023655 | 20° C | 65% | 1009.1 hPa | 0 mm | 0.89 m/s, 191° | - | - |
| 1778023614 | 20° C | 65% | 1009.1 hPa | 0 mm | 0.89 m/s, 191° | - | - |
| 1778023355 | 20° C | 64% | 1009 hPa | 0 mm | 0.45 m/s, 190° | - | - |
| 1778023314 | 20° C | 64% | 1009 hPa | 0 mm | 0.45 m/s, 190° | - | - |
| 1778023076 | 20° C | 64% | 1008.9 hPa | 0 mm | 0.45 m/s, 190° | - | - |
* Rain latest hour (hover to see other rain measurements)
** Current wind speed in m/s (hover to see current wind gust speed)